Time;durP1;ratioP1;P1;durP2;ratioP2;P2;SDS_P1;SDS_P2;PMS_P1;PMS_P2;Temp;Humidity;BMP_temperature;BMP_pressure;BME280_temperature;BME280_humidity;BME280_pressure;Samples;Min_cycle;Max_cycle;Signal;HPM_P1;HPM_P2
2021/07/17 00:02:08;;;;;;;10.98;5.28;;;18.20;55.30;;;;;;4980438;28;21220;-73
2021/07/17 00:04:34;;;;;;;11.35;5.80;;;18.20;54.50;;;;;;4980494;28;20031;-74
2021/07/17 00:07:00;;;;;;;12.55;5.95;;;18.10;53.50;;;;;;4980337;28;20037;-74
2021/07/17 00:09:26;;;;;;;10.90;5.47;;;18.10;54.10;;;;;;4980224;28;20051;-73
2021/07/17 00:11:51;;;;;;;12.18;5.45;;;18.00;53.40;;;;;;4980143;28;20034;-74
2021/07/17 00:14:17;;;;;;;10.25;5.15;;;18.10;54.90;;;;;;4980312;28;20468;-73
2021/07/17 00:16:43;;;;;;;13.45;6.38;;;18.00;55.70;;;;;;4978081;28;20086;-73
2021/07/17 00:19:09;;;;;;;12.50;5.63;;;18.00;56.60;;;;;;4960885;28;20521;-73
2021/07/17 00:21:35;;;;;;;10.23;5.45;;;17.90;56.70;;;;;;4960542;28;20027;-73
2021/07/17 00:24:01;;;;;;;10.02;6.13;;;17.80;57.60;;;;;;4960688;28;20099;-73
2021/07/17 00:26:27;;;;;;;12.68;6.30;;;17.70;58.00;;;;;;4960688;28;20111;-73
2021/07/17 00:28:53;;;;;;;11.52;5.55;;;17.60;58.50;;;;;;4960736;28;20027;-73
2021/07/17 00:31:19;;;;;;;11.73;5.97;;;17.60;58.70;;;;;;4960478;28;20015;-74
2021/07/17 00:33:45;;;;;;;14.57;6.28;;;17.50;59.00;;;;;;4960609;28;20059;-73
2021/07/17 00:36:10;;;;;;;13.60;5.95;;;17.40;58.40;;;;;;4960200;28;20019;-74
2021/07/17 00:38:36;;;;;;;10.43;5.65;;;17.30;58.20;;;;;;4964334;28;20062;-74
2021/07/17 00:41:02;;;;;;;16.10;6.93;;;17.30;59.20;;;;;;4960538;28;20023;-74
2021/07/17 00:43:28;;;;;;;13.32;6.03;;;17.30;59.30;;;;;;4959832;28;20078;-74
2021/07/17 00:45:54;;;;;;;13.40;6.40;;;17.20;59.30;;;;;;4960165;28;20074;-74
2021/07/17 00:48:22;;;;;;;11.57;6.25;;;17.20;58.50;;;;;;4960559;28;20394;-74
2021/07/17 00:50:48;;;;;;;15.75;6.07;;;17.20;58.80;;;;;;4960061;28;20423;-74
2021/07/17 00:53:14;;;;;;;12.85;6.63;;;17.20;58.80;;;;;;4960160;28;20032;-74
2021/07/17 00:55:46;;;;;;;13.48;6.80;;;17.10;58.60;;;;;;4961910;28;20079;-74
2021/07/17 00:58:15;;;;;;;13.00;6.38;;;17.10;58.90;;;;;;4979836;28;20069;-74
2021/07/17 01:00:42;;;;;;;12.05;6.07;;;17.10;59.10;;;;;;4979259;28;20027;-74
2021/07/17 01:03:09;;;;;;;14.52;6.25;;;17.10;60.50;;;;;;4979561;28;20030;-74
2021/07/17 01:05:36;;;;;;;11.63;6.32;;;17.10;60.00;;;;;;4978941;28;20027;-74
2021/07/17 01:08:02;;;;;;;10.90;5.88;;;17.00;60.20;;;;;;4979096;28;20469;-74
2021/07/17 01:10:29;;;;;;;15.00;6.57;;;17.00;60.00;;;;;;4979295;28;20034;-75
2021/07/17 01:12:55;;;;;;;13.40;6.53;;;17.00;60.90;;;;;;4979297;28;20051;-75
2021/07/17 01:15:21;;;;;;;11.68;6.47;;;17.00;60.80;;;;;;4979242;28;20211;-74
2021/07/17 01:17:47;;;;;;;14.38;6.82;;;16.90;60.20;;;;;;4968778;28;20035;-74
2021/07/17 01:20:17;;;;;;;12.60;6.72;;;16.90;60.80;;;;;;4959663;28;20401;-74
2021/07/17 01:22:43;;;;;;;15.88;6.68;;;16.80;60.70;;;;;;4959945;28;20035;-74
2021/07/17 01:25:23;;;;;;;14.32;6.60;;;16.90;61.20;;;;;;4959460;28;20036;-74
2021/07/17 01:27:54;;;;;;;10.55;6.00;;;16.80;61.30;;;;;;4959914;28;20051;-74
2021/07/17 01:30:24;;;;;;;15.05;6.85;;;16.80;60.80;;;;;;4959675;28;20479;-74
2021/07/17 01:32:50;;;;;;;15.27;6.53;;;16.80;62.80;;;;;;4959671;28;20027;-74
2021/07/17 01:35:16;;;;;;;14.43;6.47;;;16.80;62.60;;;;;;4959525;28;20027;-74
2021/07/17 01:37:42;;;;;;;12.50;6.43;;;16.70;63.40;;;;;;4959266;28;20027;-74
2021/07/17 01:40:11;;;;;;;16.33;7.22;;;16.70;63.40;;;;;;4959618;28;20035;-74
2021/07/17 01:42:37;;;;;;;12.90;6.38;;;16.60;62.80;;;;;;4968765;28;20442;-75
2021/07/17 01:45:08;;;;;;;17.20;6.70;;;16.60;62.20;;;;;;4959727;28;20554;-74
2021/07/17 01:47:36;;;;;;;15.20;6.95;;;16.50;63.30;;;;;;4970740;28;20091;-75
2021/07/17 01:50:04;;;;;;;14.98;7.25;;;16.60;63.70;;;;;;4978875;28;20025;-74
2021/07/17 01:52:30;;;;;;;17.45;7.63;;;16.50;63.50;;;;;;4978200;28;20037;-74
2021/07/17 01:54:55;;;;;;;16.42;7.68;;;16.50;63.30;;;;;;4973918;28;20027;-74
2021/07/17 01:57:21;;;;;;;21.38;8.35;;;16.50;65.20;;;;;;4974517;28;20035;-75
2021/07/17 01:59:47;;;;;;;19.13;7.70;;;16.50;63.70;;;;;;4978693;28;20019;-74
2021/07/17 02:02:13;;;;;;;16.73;8.13;;;16.40;64.80;;;;;;4978485;28;20031;-75
2021/07/17 02:04:39;;;;;;;20.65;8.13;;;16.40;65.20;;;;;;4978485;28;20113;-74
2021/07/17 02:07:06;;;;;;;16.50;8.55;;;16.40;63.70;;;;;;4963831;28;20086;-75
2021/07/17 02:09:33;;;;;;;18.23;8.05;;;16.40;65.70;;;;;;4978259;28;20049;-75
2021/07/17 02:11:59;;;;;;;20.90;8.57;;;16.40;64.00;;;;;;4978347;28;20027;-74
2021/07/17 02:14:25;;;;;;;19.95;8.93;;;16.40;65.70;;;;;;4978490;28;20558;-74
2021/07/17 02:16:50;;;;;;;20.98;8.10;;;16.40;65.40;;;;;;4975682;28;20028;-74
2021/07/17 02:19:21;;;;;;;20.92;8.30;;;16.40;64.40;;;;;;4959215;28;20066;-75
2021/07/17 02:21:52;;;;;;;13.65;7.47;;;16.40;65.20;;;;;;4958725;28;20051;-75
2021/07/17 02:24:18;;;;;;;16.63;8.18;;;16.40;62.80;;;;;;4959147;28;20031;-75
2021/07/17 02:26:45;;;;;;;14.40;7.40;;;16.40;63.80;;;;;;4958911;28;20055;-74
2021/07/17 02:29:12;;;;;;;18.02;7.88;;;16.40;62.50;;;;;;4959020;28;20016;-74
2021/07/17 02:31:41;;;;;;;12.93;7.03;;;16.40;61.80;;;;;;4958900;28;20019;-75
2021/07/17 02:34:07;;;;;;;15.05;6.63;;;16.40;60.90;;;;;;4959021;28;20020;-75
2021/07/17 02:36:33;;;;;;;13.35;6.72;;;16.50;60.00;;;;;;4958665;28;20031;-74
2021/07/17 02:38:59;;;;;;;11.68;6.53;;;16.50;59.80;;;;;;4958844;28;20024;-74
2021/07/17 02:41:25;;;;;;;15.98;7.10;;;16.50;58.80;;;;;;4959063;28;20027;-74
2021/07/17 02:43:51;;;;;;;13.25;7.00;;;16.60;61.60;;;;;;4958925;28;20027;-75
2021/07/17 02:46:17;;;;;;;13.45;6.88;;;16.60;59.70;;;;;;4958600;28;20027;-75
2021/07/17 02:48:43;;;;;;;14.35;6.57;;;16.50;59.00;;;;;;4973726;28;20080;-75
2021/07/17 02:51:09;;;;;;;11.27;6.82;;;16.50;58.20;;;;;;4958543;28;20496;-74
2021/07/17 02:53:35;;;;;;;13.18;6.80;;;16.50;58.10;;;;;;4966195;28;20028;-75
2021/07/17 02:56:01;;;;;;;13.07;6.90;;;16.60;58.10;;;;;;4969209;28;20026;-75
2021/07/17 02:58:27;;;;;;;12.77;6.47;;;16.60;57.50;;;;;;4978095;28;20031;-75
2021/07/17 03:00:55;;;;;;;14.25;6.57;;;16.50;56.80;;;;;;4977962;28;20054;-75
2021/07/17 03:03:22;;;;;;;10.07;6.20;;;16.60;58.70;;;;;;4978082;28;20481;-75
2021/07/17 03:05:49;;;;;;;12.30;6.35;;;16.50;57.60;;;;;;4977616;28;20038;-75
2021/07/17 03:08:24;;;;;;;10.77;6.05;;;16.50;57.10;;;;;;4981195;28;20047;-76
2021/07/17 03:10:55;;;;;;;9.93;5.78;;;16.50;56.70;;;;;;4980110;28;20031;-75
2021/07/17 03:13:22;;;;;;;13.40;5.97;;;16.50;56.10;;;;;;4980253;28;20459;-75
2021/07/17 03:15:49;;;;;;;10.95;6.47;;;16.50;56.00;;;;;;4980578;28;20023;-75
2021/07/17 03:18:16;;;;;;;10.50;6.13;;;16.50;55.70;;;;;;4966374;28;20085;-75
2021/07/17 03:20:44;;;;;;;12.27;5.90;;;16.40;55.70;;;;;;4960748;28;20019;-74
2021/07/17 03:23:10;;;;;;;12.18;5.97;;;16.40;55.60;;;;;;4960541;28;20035;-75
2021/07/17 03:25:36;;;;;;;13.93;6.53;;;16.40;56.00;;;;;;4960689;28;20051;-74
2021/07/17 03:28:02;;;;;;;12.00;6.70;;;16.40;55.90;;;;;;4960717;28;20398;-74
2021/07/17 03:30:28;;;;;;;11.07;6.28;;;16.40;55.80;;;;;;4960872;28;20050;-74
2021/07/17 03:32:53;;;;;;;10.90;6.30;;;16.40;55.60;;;;;;4960657;28;20098;-74
2021/07/17 03:35:19;;;;;;;10.63;5.72;;;16.30;55.40;;;;;;4960394;28;20038;-75
2021/07/17 03:37:45;;;;;;;13.25;6.50;;;16.30;55.30;;;;;;4960367;28;20063;-74
2021/07/17 03:40:12;;;;;;;10.63;5.72;;;16.30;55.50;;;;;;4961008;28;20074;-75
2021/07/17 03:42:37;;;;;;;11.45;5.57;;;16.30;55.50;;;;;;4960354;28;20023;-75
2021/07/17 03:45:04;;;;;;;9.68;5.68;;;16.20;55.50;;;;;;4960579;28;20041;-75
2021/07/17 03:47:30;;;;;;;10.40;5.78;;;16.20;55.40;;;;;;4960205;28;20051;-74
2021/07/17 03:49:56;;;;;;;10.40;5.88;;;16.20;55.20;;;;;;4960521;28;20054;-75
2021/07/17 03:52:22;;;;;;;11.20;6.00;;;16.20;55.50;;;;;;4959934;28;20452;-75
2021/07/17 03:54:48;;;;;;;10.73;6.18;;;16.20;55.70;;;;;;4960451;28;20039;-75
2021/07/17 03:57:14;;;;;;;10.35;6.15;;;16.20;55.40;;;;;;4974786;28;20019;-75
2021/07/17 03:59:39;;;;;;;12.05;6.63;;;16.10;55.30;;;;;;4979627;28;20023;-74
2021/07/17 04:02:05;;;;;;;9.05;5.68;;;16.10;55.30;;;;;;4979455;28;20183;-75
2021/07/17 04:04:31;;;;;;;11.25;6.18;;;16.00;55.10;;;;;;4979732;28;20474;-75
2021/07/17 04:06:57;;;;;;;9.23;5.65;;;16.10;55.40;;;;;;4977690;28;20025;-74
2021/07/17 04:09:23;;;;;;;11.63;6.53;;;16.10;55.60;;;;;;4935231;28;1304565;-75
2021/07/17 04:11:50;;;;;;;9.73;5.75;;;16.00;55.30;;;;;;4980281;28;20054;-74
2021/07/17 04:14:16;;;;;;;9.95;5.05;;;16.00;55.30;;;;;;4980298;28;20050;-75
2021/07/17 04:16:43;;;;;;;10.15;5.97;;;16.00;55.20;;;;;;4979253;28;20019;-74
2021/07/17 04:19:09;;;;;;;12.75;6.38;;;16.00;55.70;;;;;;4959961;28;20098;-74
2021/07/17 04:21:35;;;;;;;16.23;8.32;;;16.00;59.20;;;;;;4960573;28;20419;-74
2021/07/17 04:24:01;;;;;;;16.58;8.25;;;15.90;60.90;;;;;;4960716;28;20039;-74
2021/07/17 04:26:26;;;;;;;11.07;6.72;;;15.90;62.80;;;;;;4960667;28;20079;-74
2021/07/17 04:28:52;;;;;;;16.08;7.82;;;15.80;60.50;;;;;;4960714;28;20139;-74
2021/07/17 04:31:18;;;;;;;17.08;8.60;;;15.80;61.20;;;;;;4960518;28;20031;-74
2021/07/17 04:33:44;;;;;;;12.30;6.93;;;15.80;61.00;;;;;;4960807;28;20030;-74
2021/07/17 04:36:10;;;;;;;12.55;6.90;;;15.70;59.70;;;;;;4969951;28;20094;-74
2021/07/17 04:38:37;;;;;;;18.23;8.00;;;15.70;61.40;;;;;;4963548;28;20057;-74
2021/07/17 04:41:03;;;;;;;17.48;8.18;;;15.70;61.30;;;;;;4974723;28;20031;-74
2021/07/17 04:43:29;;;;;;;16.67;7.80;;;15.70;63.50;;;;;;4979823;28;20033;-74
2021/07/17 04:45:55;;;;;;;16.42;8.57;;;15.70;63.00;;;;;;4978128;28;20034;-74
2021/07/17 04:48:20;;;;;;;16.35;8.55;;;15.70;62.40;;;;;;4979800;28;20034;-74
2021/07/17 04:50:46;;;;;;;20.27;8.40;;;15.70;64.60;;;;;;4979322;28;20026;-74
2021/07/17 04:53:12;;;;;;;15.15;7.85;;;15.70;64.00;;;;;;4979577;28;20027;-74
2021/07/17 04:55:39;;;;;;;14.63;8.40;;;15.60;62.10;;;;;;4971690;28;20094;-74
2021/07/17 04:58:05;;;;;;;19.08;8.35;;;15.60;64.00;;;;;;4979627;28;20031;-74
2021/07/17 05:00:31;;;;;;;17.02;8.45;;;15.60;64.10;;;;;;4963029;28;20082;-74
2021/07/17 05:02:56;;;;;;;18.42;8.80;;;15.60;63.20;;;;;;4960168;28;20035;-74
2021/07/17 05:05:23;;;;;;;15.13;8.10;;;15.60;63.30;;;;;;4959624;28;20479;-74
2021/07/17 05:07:51;;;;;;;17.17;8.25;;;15.60;63.00;;;;;;4960016;28;20023;-74
2021/07/17 05:10:19;;;;;;;19.92;8.95;;;15.60;64.40;;;;;;4959627;28;20042;-75
2021/07/17 05:12:45;;;;;;;17.70;7.65;;;15.60;63.60;;;;;;4960308;28;20386;-74
2021/07/17 05:15:13;;;;;;;14.95;8.30;;;15.60;64.40;;;;;;4961829;28;20023;-74
2021/07/17 05:17:39;;;;;;;16.83;8.18;;;15.60;63.20;;;;;;4968533;28;20055;-74
2021/07/17 05:20:07;;;;;;;22.10;8.85;;;15.60;63.40;;;;;;4975388;28;20529;-74
2021/07/17 05:22:34;;;;;;;19.40;9.23;;;15.60;65.10;;;;;;4978863;28;20037;-74
2021/07/17 05:25:01;;;;;;;16.80;8.43;;;15.60;62.80;;;;;;4961570;28;20082;-75
2021/07/17 05:27:26;;;;;;;18.02;9.10;;;15.60;63.60;;;;;;4959666;28;20027;-74
2021/07/17 05:29:52;;;;;;;16.90;7.57;;;15.70;64.10;;;;;;4959353;28;20015;-74
2021/07/17 05:32:18;;;;;;;15.77;7.55;;;15.60;63.30;;;;;;4964475;28;20027;-74
2021/07/17 05:34:44;;;;;;;17.20;7.63;;;15.60;62.50;;;;;;4959576;28;20019;-73
2021/07/17 05:37:11;;;;;;;11.88;6.70;;;15.70;62.10;;;;;;4959241;28;20038;-73
2021/07/17 05:39:38;;;;;;;15.32;7.75;;;15.70;61.00;;;;;;4959583;28;20019;-74
2021/07/17 05:42:04;;;;;;;14.40;6.82;;;15.70;61.60;;;;;;4959649;28;20494;-73
2021/07/17 05:44:30;;;;;;;15.93;6.70;;;15.70;60.50;;;;;;4959412;28;20019;-74
2021/07/17 05:46:56;;;;;;;22.55;7.35;;;15.70;60.20;;;;;;4959337;28;20078;-73
2021/07/17 05:49:22;;;;;;;16.05;7.80;;;15.70;61.20;;;;;;4959430;28;20027;-73
2021/07/17 05:51:48;;;;;;;13.15;6.75;;;15.80;60.90;;;;;;4959117;28;20027;-74
2021/07/17 05:54:15;;;;;;;18.73;8.90;;;15.80;60.70;;;;;;4959306;28;20027;-74
2021/07/17 05:56:41;;;;;;;13.93;7.68;;;15.80;64.60;;;;;;4969199;28;20392;-74
2021/07/17 05:59:06;;;;;;;20.10;8.45;;;15.80;63.10;;;;;;4978671;28;20035;-73
2021/07/17 06:01:32;;;;;;;16.38;7.38;;;15.80;63.50;;;;;;4967144;28;20039;-74
2021/07/17 06:03:58;;;;;;;15.85;8.18;;;15.80;63.20;;;;;;4975942;28;20105;-73
2021/07/17 06:06:24;;;;;;;17.55;8.32;;;15.90;62.40;;;;;;4977127;28;20023;-74
2021/07/17 06:08:50;;;;;;;15.50;8.02;;;15.90;62.80;;;;;;4978172;28;20093;-71
2021/07/17 06:11:15;;;;;;;17.98;8.00;;;15.90;62.50;;;;;;4966804;28;20066;-73
2021/07/17 06:13:42;;;;;;;16.27;7.82;;;16.00;61.40;;;;;;4964039;28;20540;-73
2021/07/17 06:16:08;;;;;;;14.45;6.72;;;16.00;62.10;;;;;;4974552;28;20117;-71
2021/07/17 06:18:34;;;;;;;16.80;7.13;;;16.00;61.30;;;;;;4969260;28;20051;-70
2021/07/17 06:21:00;;;;;;;16.25;7.63;;;16.00;61.30;;;;;;4978189;28;20053;-71
2021/07/17 06:23:26;;;;;;;16.17;7.97;;;16.00;62.10;;;;;;4971094;28;20105;-71
2021/07/17 06:25:52;;;;;;;12.75;6.65;;;16.10;62.10;;;;;;4973468;28;20027;-73
2021/07/17 06:28:18;;;;;;;10.27;6.15;;;16.10;62.00;;;;;;4961776;28;20020;-72
2021/07/17 06:30:44;;;;;;;14.63;6.70;;;16.10;61.90;;;;;;4959078;28;20027;-75
2021/07/17 06:33:10;;;;;;;17.20;6.75;;;16.10;61.40;;;;;;4958867;28;20031;-71
2021/07/17 06:35:36;;;;;;;16.55;7.30;;;16.20;61.50;;;;;;4958762;28;20031;-71
2021/07/17 06:38:02;;;;;;;14.23;6.97;;;16.20;62.50;;;;;;4970864;28;20491;-73
2021/07/17 06:40:28;;;;;;;12.43;6.72;;;16.30;62.10;;;;;;4958780;28;20114;-69
2021/07/17 06:42:54;;;;;;;16.77;7.68;;;16.30;62.60;;;;;;4961757;28;20051;-71
2021/07/17 06:45:21;;;;;;;14.93;6.68;;;16.40;63.80;;;;;;4962470;28;20027;-71
2021/07/17 06:47:48;;;;;;;14.95;7.15;;;16.40;63.50;;;;;;4962352;28;20402;-77
2021/07/17 06:50:16;;;;;;;21.45;7.93;;;16.50;65.10;;;;;;4971103;28;20039;-70
2021/07/17 06:52:42;;;;;;;17.25;7.20;;;16.60;65.00;;;;;;4971865;28;20026;-75
2021/07/17 06:55:10;;;;;;;15.98;6.95;;;16.70;64.60;;;;;;4972870;28;20406;-68
2021/07/17 06:57:40;;;;;;;15.10;6.90;;;16.80;64.90;;;;;;4978509;28;20131;-68
2021/07/17 07:00:11;;;;;;;14.45;7.80;;;17.00;65.00;;;;;;4981512;28;20435;-68
2021/07/17 07:02:37;;;;;;;13.50;6.95;;;17.30;65.80;;;;;;4972661;28;20027;-69
2021/07/17 07:05:05;;;;;;;15.85;7.05;;;17.60;66.30;;;;;;4976306;28;20118;-70
2021/07/17 07:07:31;;;;;;;17.83;6.35;;;18.00;66.80;;;;;;4972198;28;20051;-68
2021/07/17 07:09:57;;;;;;;9.20;6.32;;;18.30;66.70;;;;;;4968422;28;20031;-68
2021/07/17 07:12:23;;;;;;;12.10;5.60;;;18.80;67.50;;;;;;4972553;28;20018;-68
2021/07/17 07:14:49;;;;;;;12.90;6.38;;;19.30;69.30;;;;;;4967847;28;20072;-70
2021/07/17 07:17:15;;;;;;;12.50;5.65;;;19.80;69.50;;;;;;4974817;28;20094;-71
2021/07/17 07:19:41;;;;;;;11.77;5.72;;;20.30;68.00;;;;;;4977801;28;20102;-70
2021/07/17 07:22:06;;;;;;;10.20;5.40;;;20.90;68.90;;;;;;4972665;28;20069;-69
2021/07/17 07:24:32;;;;;;;24.60;16.65;;;21.40;69.00;;;;;;4981297;28;20023;-72
2021/07/17 07:26:59;;;;;;;15.13;10.18;;;21.90;68.10;;;;;;4980857;28;20031;-71
2021/07/17 07:29:25;;;;;;;12.80;7.78;;;22.40;67.40;;;;;;4980948;28;20498;-73
2021/07/17 07:31:52;;;;;;;12.30;5.93;;;22.80;65.60;;;;;;4980938;28;20023;-70
2021/07/17 07:34:20;;;;;;;9.68;5.03;;;23.30;66.40;;;;;;4978332;28;20026;-74
2021/07/17 07:36:50;;;;;;;10.32;4.70;;;23.70;64.70;;;;;;4980822;28;20117;-70
2021/07/17 07:39:17;;;;;;;10.07;4.70;;;24.00;63.30;;;;;;4981303;28;20504;-73
2021/07/17 07:41:43;;;;;;;9.13;4.10;;;24.30;61.50;;;;;;4981012;28;20027;-73
2021/07/17 07:44:10;;;;;;;9.82;4.65;;;24.60;61.70;;;;;;4980748;28;20114;-73
2021/07/17 07:46:36;;;;;;;9.05;4.70;;;24.90;61.70;;;;;;4980734;28;20478;-73
2021/07/17 07:49:04;;;;;;;13.18;4.72;;;25.20;61.00;;;;;;4980668;28;20023;-73
2021/07/17 07:51:30;;;;;;;11.27;4.65;;;25.60;61.40;;;;;;4980390;28;20026;-73
2021/07/17 07:53:56;;;;;;;9.63;4.15;;;25.90;61.10;;;;;;4980335;28;20082;-73
2021/07/17 07:56:21;;;;;;;6.82;4.43;;;26.30;60.60;;;;;;4972925;28;20058;-73
2021/07/17 07:58:47;;;;;;;12.60;4.97;;;26.50;59.50;;;;;;4979121;28;20022;-73
2021/07/17 08:01:13;;;;;;;8.45;3.95;;;26.70;58.30;;;;;;4980554;28;20031;-73
2021/07/17 08:03:39;;;;;;;8.40;3.78;;;27.00;58.80;;;;;;4980417;28;20462;-73
2021/07/17 08:06:05;;;;;;;9.43;4.07;;;27.30;58.70;;;;;;4980166;28;20081;-73
2021/07/17 08:08:31;;;;;;;10.00;3.92;;;27.50;57.40;;;;;;4980004;28;20043;-78
2021/07/17 08:10:58;;;;;;;16.65;10.88;;;27.80;57.90;;;;;;4980416;28;20105;-79
2021/07/17 08:13:24;;;;;;;26.00;19.65;;;28.10;58.40;;;;;;4980318;28;20470;-78
2021/07/17 08:15:50;;;;;;;16.45;11.82;;;28.40;57.70;;;;;;4980596;28;20023;-75
2021/07/17 08:18:17;;;;;;;8.55;5.05;;;28.60;57.10;;;;;;4965888;28;20027;-77
2021/07/17 08:20:43;;;;;;;9.80;4.93;;;28.80;55.60;;;;;;4980029;28;20058;-77
2021/07/17 08:23:09;;;;;;;11.10;5.13;;;29.00;55.70;;;;;;4980078;28;20031;-77
2021/07/17 08:25:35;;;;;;;10.20;4.70;;;29.20;56.50;;;;;;4979985;28;20473;-77
2021/07/17 08:28:01;;;;;;;9.18;4.43;;;29.50;55.10;;;;;;4980325;28;20501;-77
2021/07/17 08:30:27;;;;;;;9.45;4.68;;;29.70;54.60;;;;;;4980028;28;20023;-77
2021/07/17 08:32:54;;;;;;;11.13;4.43;;;29.90;54.80;;;;;;4979916;28;20053;-77
2021/07/17 08:35:20;;;;;;;8.95;3.85;;;30.00;52.90;;;;;;4979691;28;20031;-78
2021/07/17 08:37:46;;;;;;;9.80;3.88;;;30.10;52.10;;;;;;4979661;28;20019;-76
2021/07/17 08:40:12;;;;;;;8.13;3.80;;;30.30;53.80;;;;;;4970768;28;20042;-81
2021/07/17 08:42:45;;;;;;;9.35;4.00;;;30.50;52.30;;;;;;4960313;28;20027;-82
2021/07/17 08:45:11;;;;;;;7.03;3.72;;;30.80;53.70;;;;;;4960450;28;20050;-81
2021/07/17 08:47:40;;;;;;;6.97;3.45;;;31.10;53.50;;;;;;4960147;28;20027;-81
2021/07/17 08:50:09;;;;;;;8.63;3.80;;;31.40;52.10;;;;;;4964896;28;20035;-82
2021/07/17 08:52:36;;;;;;;7.45;3.60;;;31.60;49.10;;;;;;4976098;28;20073;-81
2021/07/17 08:55:05;;;;;;;8.60;3.83;;;31.90;50.90;;;;;;4975000;28;20031;-81
2021/07/17 08:57:34;;;;;;;9.65;3.70;;;32.10;49.70;;;;;;4976889;28;20034;-81
2021/07/17 09:00:04;;;;;;;8.32;4.07;;;32.40;49.70;;;;;;4979366;28;20034;-81
2021/07/17 09:02:30;;;;;;;9.50;4.03;;;32.70;49.80;;;;;;4979314;28;20030;-81
2021/07/17 09:04:56;;;;;;;8.15;4.22;;;32.90;48.40;;;;;;4978791;28;20031;-81
2021/07/17 09:07:21;;;;;;;8.45;4.35;;;33.20;49.90;;;;;;4979094;28;20027;-82
2021/07/17 09:09:49;;;;;;;7.45;3.60;;;33.50;48.20;;;;;;4979093;28;20059;-81
2021/07/17 09:12:24;;;;;;;8.13;3.83;;;33.80;50.70;;;;;;4979117;28;20050;-81
2021/07/17 09:14:50;;;;;;;7.97;3.90;;;34.20;50.80;;;;;;4979050;28;20019;-81
2021/07/17 09:17:27;;;;;;;6.60;3.80;;;34.60;48.10;;;;;;4972578;28;20094;-81
2021/07/17 09:19:56;;;;;;;7.82;3.75;;;34.80;46.50;;;;;;4959814;28;20023;-82
2021/07/17 09:22:39;;;;;;;10.05;3.88;;;35.00;45.30;;;;;;4959758;28;20023;-79
2021/07/17 09:25:15;;;;;;;8.40;3.50;;;35.10;44.80;;;;;;4959679;28;20114;-76
2021/07/17 09:27:42;;;;;;;9.65;4.10;;;35.40;46.40;;;;;;4959747;28;20098;-79
2021/07/17 09:30:43;;;;;;;8.63;3.80;;;35.60;45.50;;;;;;4959545;28;20097;-77
2021/07/17 09:33:09;;;;;;;8.55;4.18;;;36.00;46.30;;;;;;4957696;28;20047;-79
2021/07/17 09:35:38;;;;;;;6.80;3.42;;;36.30;45.30;;;;;;4969166;28;20046;-80
2021/07/17 09:38:06;;;;;;;8.25;3.47;;;36.50;44.50;;;;;;4978679;28;20023;-76
2021/07/17 09:41:05;;;;;;;10.05;4.32;;;36.70;43.90;;;;;;4978981;28;20502;-75
2021/07/17 09:43:36;;;;;;;8.15;3.78;;;36.90;40.10;;;;;;4983361;28;20094;-77
2021/07/17 09:46:23;;;;;;;9.23;4.20;;;36.90;43.90;;;;;;4978600;28;20027;-73
2021/07/17 09:48:53;;;;;;;61.75;53.30;;;37.00;43.90;;;;;;4978746;28;20485;-77
2021/07/17 09:51:28;;;;;;;16.50;9.23;;;37.20;45.00;;;;;;4978711;28;20042;-77
2021/07/17 09:53:55;;;;;;;12.55;6.53;;;37.50;43.70;;;;;;4978542;28;20107;-72
2021/07/17 09:56:24;;;;;;;8.90;4.30;;;37.80;45.00;;;;;;4970818;28;20062;-74
2021/07/17 09:58:51;;;;;;;7.68;4.20;;;38.00;43.10;;;;;;4977205;28;20110;-77
2021/07/17 10:01:21;;;;;;;10.65;4.75;;;38.30;43.80;;;;;;4978697;28;20022;-74
2021/07/17 10:03:48;;;;;;;10.88;5.00;;;38.60;43.30;;;;;;4978440;28;20019;-78
2021/07/17 10:06:35;;;;;;;8.50;4.35;;;38.80;42.60;;;;;;4978381;28;20062;-74
2021/07/17 10:09:23;;;;;;;9.05;4.25;;;39.10;42.50;;;;;;4978262;28;20039;-76
2021/07/17 10:12:05;;;;;;;8.10;3.88;;;39.30;41.90;;;;;;4974409;28;20042;-76
2021/07/17 10:14:41;;;;;;;10.98;4.43;;;39.70;42.70;;;;;;4978395;28;20501;-78
2021/07/17 10:17:10;;;;;;;9.23;3.97;;;40.00;42.30;;;;;;4976271;28;20070;-76
2021/07/17 10:19:38;;;;;;;8.40;3.90;;;40.20;41.70;;;;;;4963197;28;20118;-77
2021/07/17 10:22:05;;;;;;;10.57;4.20;;;40.50;40.70;;;;;;4962462;28;20030;-73
2021/07/17 10:24:31;;;;;;;10.02;5.13;;;40.60;39.20;;;;;;4970704;28;20461;-76
2021/07/17 10:26:58;;;;;;;11.80;5.28;;;40.80;39.40;;;;;;4963222;28;20050;-76
2021/07/17 10:29:26;;;;;;;12.15;4.28;;;41.00;39.90;;;;;;4980619;28;20421;-74
2021/07/17 10:31:54;;;;;;;10.70;5.10;;;41.20;40.60;;;;;;4978481;28;20030;-74
2021/07/17 10:34:21;;;;;;;9.82;4.82;;;41.50;40.70;;;;;;4976350;28;20478;-74
2021/07/17 10:37:22;;;;;;;9.35;4.20;;;41.80;39.90;;;;;;4962395;28;20031;-73
2021/07/17 10:39:54;;;;;;;;;;;42.10;39.40;;;;;;4976661;28;20034;-73
2021/07/17 10:42:20;;;;;;;;;;;42.20;36.90;;;;;;4969188;28;20384;-74
2021/07/17 10:44:51;;;;;;;8.63;3.92;;;42.40;38.30;;;;;;4984071;28;19913;-73
2021/07/17 10:47:19;;;;;;;7.63;4.20;;;42.40;38.70;;;;;;4965371;28;20030;-74
2021/07/17 10:49:51;;;;;;;10.55;4.68;;;42.50;37.50;;;;;;4965775;28;20051;-70
2021/07/17 10:52:37;;;;;;;9.27;5.05;;;42.60;36.70;;;;;;4970460;28;20027;-69
2021/07/17 10:55:26;;;;;;;9.73;4.38;;;42.70;37.50;;;;;;4961793;28;20027;-71
2021/07/17 10:57:54;;;;;;;8.23;4.03;;;42.70;36.90;;;;;;4976442;28;20031;-71
2021/07/17 11:00:50;;;;;;;29.25;20.08;;;42.60;36.00;;;;;;4985003;28;20022;-71
2021/07/17 11:03:29;;;;;;;231.20;150.88;;;42.50;36.00;;;;;;4959801;28;20042;-72
2021/07/17 11:05:56;;;;;;;27.02;18.17;;;42.40;35.70;;;;;;4981216;28;20072;-74
2021/07/17 11:08:33;;;;;;;14.98;7.47;;;42.30;36.00;;;;;;4972502;28;20102;-76
2021/07/17 11:11:02;;;;;;;10.48;6.30;;;42.20;35.60;;;;;;4973240;28;20102;-72
2021/07/17 11:13:36;;;;;;;12.52;8.30;;;42.20;37.20;;;;;;4980893;28;20027;-75
2021/07/17 11:16:03;;;;;;;16.65;12.98;;;42.20;37.90;;;;;;4974572;28;20486;-75
2021/07/17 11:18:37;;;;;;;91.72;82.57;;;42.30;38.80;;;;;;4981162;28;20417;-74
2021/07/17 11:21:06;;;;;;;126.50;114.50;;;42.40;37.80;;;;;;4976445;28;20085;-73
2021/07/17 11:23:35;;;;;;;27.40;19.85;;;42.50;38.40;;;;;;4969814;28;20031;-75
2021/07/17 11:26:12;;;;;;;15.07;10.43;;;42.50;38.50;;;;;;4968282;28;20438;-74
2021/07/17 11:28:51;;;;;;;12.02;6.65;;;42.60;38.70;;;;;;4968609;28;20023;-79
2021/07/17 11:31:36;;;;;;;10.00;5.80;;;42.50;34.60;;;;;;4976349;28;20042;-75
2021/07/17 11:34:14;;;;;;;10.95;6.00;;;42.30;36.50;;;;;;4965201;28;20035;-79
2021/07/17 11:36:55;;;;;;;12.15;6.60;;;42.20;36.50;;;;;;4960157;28;20031;-77
2021/07/17 11:39:25;;;;;;;9.55;5.70;;;41.80;34.70;;;;;;4976271;28;20085;-80
2021/07/17 11:41:51;;;;;;;7.90;4.53;;;41.60;33.10;;;;;;4970558;28;20027;-79
2021/07/17 11:44:18;;;;;;;8.75;4.97;;;41.30;35.80;;;;;;4967849;28;20069;-80
2021/07/17 11:46:56;;;;;;;8.82;5.03;;;41.10;34.80;;;;;;4961211;28;20038;-78
2021/07/17 11:49:27;;;;;;;11.13;4.30;;;40.80;36.20;;;;;;4966498;28;20027;-80
2021/07/17 11:51:56;;;;;;;10.38;4.57;;;40.50;34.50;;;;;;4964556;28;20020;-79
2021/07/17 11:54:43;;;;;;;10.38;4.60;;;40.10;35.30;;;;;;4968984;28;20115;-80
2021/07/17 11:57:25;;;;;;;13.98;4.70;;;39.70;34.60;;;;;;4974955;28;20073;-80
2021/07/17 11:59:54;;;;;;;11.52;4.78;;;39.40;35.30;;;;;;4968550;28;20165;-75
2021/07/17 12:02:22;;;;;;;11.02;4.90;;;39.00;34.30;;;;;;4968949;28;20066;-77
2021/07/17 12:04:53;;;;;;;10.80;4.72;;;38.60;34.40;;;;;;4970696;28;20490;-80
2021/07/17 12:07:24;;;;;;;15.60;9.50;;;38.30;35.20;;;;;;4961839;28;20118;-78
2021/07/17 12:09:53;;;;;;;11.50;6.68;;;38.00;34.90;;;;;;4960646;28;20059;-75
2021/07/17 12:12:27;;;;;;;12.07;6.03;;;37.60;34.70;;;;;;4967265;28;20494;-76
2021/07/17 12:15:00;;;;;;;10.90;5.95;;;37.40;37.00;;;;;;4969028;28;20497;-77
2021/07/17 12:17:27;;;;;;;11.68;5.15;;;37.20;37.80;;;;;;4970310;28;20112;-79
2021/07/17 12:20:06;;;;;;;11.70;5.20;;;37.00;37.60;;;;;;4960660;28;20430;-79
2021/07/17 12:22:33;;;;;;;10.55;4.97;;;36.60;36.40;;;;;;4968555;28;20047;-78
2021/07/17 12:25:12;;;;;;;9.32;4.60;;;36.30;37.70;;;;;;4985358;28;20023;-69
2021/07/17 12:27:54;;;;;;;9.73;4.68;;;36.00;39.40;;;;;;4960686;28;20055;-72
2021/07/17 12:30:21;;;;;;;12.18;5.13;;;35.60;37.90;;;;;;4970109;28;20031;-73
2021/07/17 12:32:47;;;;;;;8.30;4.38;;;35.30;38.40;;;;;;4960768;28;20099;-74
2021/07/17 12:35:22;;;;;;;10.55;4.93;;;35.00;39.30;;;;;;4960294;28;20490;-73
2021/07/17 12:37:48;;;;;;;11.85;5.10;;;34.70;37.30;;;;;;4960507;28;20038;-71
2021/07/17 12:40:14;;;;;;;10.00;4.93;;;34.40;38.40;;;;;;4959944;28;20035;-73
2021/07/17 12:42:48;;;;;;;8.30;4.97;;;34.10;37.60;;;;;;4963555;28;20041;-71
2021/07/17 12:45:19;;;;;;;9.50;5.25;;;33.80;39.00;;;;;;4966935;28;20387;-76